createdAt,value
2022-10-05T00:02:26.120Z,3.00
2022-10-05T00:05:31.912Z,3.15
2022-10-05T00:08:35.167Z,2.90
2022-10-05T00:11:37.060Z,3.10
2022-10-05T00:14:39.630Z,2.92
2022-10-05T00:17:42.630Z,2.78
2022-10-05T00:20:45.220Z,2.75
2022-10-05T00:23:47.177Z,2.97
2022-10-05T00:26:55.419Z,2.95
2022-10-05T00:30:02.743Z,2.85
2022-10-05T00:33:04.495Z,2.83
2022-10-05T00:36:07.229Z,2.90
2022-10-05T00:39:09.476Z,3.20
2022-10-05T00:42:28.056Z,2.92
2022-10-05T00:45:54.764Z,2.95
2022-10-05T00:49:13.609Z,2.80
2022-10-05T00:52:27.321Z,2.78
2022-10-05T00:56:00.336Z,3.10
2022-10-05T00:59:17.469Z,2.67
2022-10-05T01:02:36.533Z,2.80
2022-10-05T01:05:55.768Z,2.80
2022-10-05T01:09:29.872Z,2.83
2022-10-05T01:12:34.562Z,2.90
2022-10-05T01:15:46.851Z,3.47
2022-10-05T01:19:06.662Z,3.10
2022-10-05T01:22:57.926Z,3.20
2022-10-05T01:26:30.519Z,3.30
2022-10-05T01:29:43.791Z,3.60
2022-10-05T01:33:04.343Z,3.20
2022-10-05T01:36:49.095Z,3.53
2022-10-05T01:39:57.047Z,3.70
2022-10-05T01:43:12.911Z,3.50
2022-10-05T01:46:44.491Z,3.13
2022-10-05T01:50:02.771Z,3.38
2022-10-05T01:53:23.106Z,3.17
2022-10-05T01:56:43.196Z,3.20
2022-10-05T02:00:20.828Z,2.90
2022-10-05T02:03:27.785Z,3.10
2022-10-05T02:06:39.028Z,3.20
2022-10-05T02:09:52.001Z,3.08
2022-10-05T02:13:10.605Z,3.05
2022-10-05T02:16:17.698Z,3.40
2022-10-05T02:19:36.645Z,3.30
2022-10-05T02:22:46.170Z,3.35
2022-10-05T02:25:51.172Z,3.63
2022-10-05T02:28:58.730Z,3.20
2022-10-05T02:32:05.653Z,3.45
2022-10-05T02:35:15.601Z,3.75
2022-10-05T02:38:56.003Z,3.25
2022-10-05T02:42:12.814Z,3.42
2022-10-05T02:49:06.621Z,3.55
2022-10-05T02:52:17.790Z,3.00
2022-10-05T02:55:41.432Z,3.30
2022-10-05T02:58:50.249Z,3.55
2022-10-05T03:02:04.834Z,3.63
2022-10-05T03:05:33.976Z,3.67
2022-10-05T03:08:46.904Z,3.55
2022-10-05T03:12:33.678Z,3.80
2022-10-05T03:16:13.213Z,3.40
2022-10-05T03:19:27.271Z,3.33
2022-10-05T03:22:38.262Z,3.78
2022-10-05T03:25:52.936Z,3.40
2022-10-05T03:29:08.212Z,3.85
2022-10-05T03:32:28.999Z,4.18
2022-10-05T03:36:14.698Z,3.45
2022-10-05T03:39:29.876Z,3.75
2022-10-05T03:42:51.897Z,3.42
2022-10-05T03:46:02.220Z,3.15
2022-10-05T03:49:22.642Z,3.38
2022-10-05T03:52:41.703Z,3.17
2022-10-05T03:56:05.422Z,4.00
2022-10-05T03:59:32.606Z,3.08
2022-10-05T04:02:46.100Z,3.13
2022-10-05T04:05:56.809Z,3.30
2022-10-05T04:09:03.668Z,2.92
2022-10-05T04:12:33.793Z,3.10
2022-10-05T04:15:42.528Z,3.63
2022-10-05T04:18:59.341Z,3.60
2022-10-05T04:22:08.344Z,3.40
2022-10-05T04:25:17.014Z,3.55
2022-10-05T04:28:32.572Z,3.33
2022-10-05T04:31:54.740Z,3.92
2022-10-05T04:35:18.459Z,3.42
2022-10-05T04:38:47.782Z,3.75
2022-10-05T04:42:09.472Z,3.90
2022-10-05T04:45:24.629Z,3.05
2022-10-05T04:49:04.411Z,3.08
2022-10-05T04:52:37.258Z,3.22
2022-10-05T04:55:57.968Z,3.47
2022-10-05T04:59:20.915Z,3.50
2022-10-05T05:02:41.466Z,3.55
2022-10-05T05:06:16.351Z,3.20
2022-10-05T05:09:53.716Z,3.90
2022-10-05T05:13:38.003Z,3.35
2022-10-05T05:16:43.289Z,4.28
2022-10-05T05:20:17.127Z,3.65
2022-10-05T05:23:37.835Z,3.75
2022-10-05T05:27:16.085Z,4.03
2022-10-05T05:30:33.176Z,3.50
2022-10-05T05:33:53.847Z,3.40
2022-10-05T05:37:11.757Z,3.53
2022-10-05T05:40:21.509Z,4.20
2022-10-05T05:44:10.367Z,3.50
2022-10-05T05:47:20.252Z,3.28
2022-10-05T05:50:30.430Z,3.13
2022-10-05T05:53:46.161Z,3.45
2022-10-05T05:57:00.464Z,3.20
2022-10-05T06:00:03.747Z,3.53
2022-10-05T06:03:28.163Z,4.00
2022-10-05T06:06:38.429Z,2.95
2022-10-05T06:09:46.053Z,3.10
2022-10-05T06:13:14.682Z,3.28
2022-10-05T06:16:36.174Z,3.33
2022-10-05T06:19:40.186Z,3.47
2022-10-05T06:22:46.015Z,3.35
2022-10-05T06:26:10.918Z,3.15
2022-10-05T06:29:21.296Z,3.30
2022-10-05T06:32:56.908Z,3.47
2022-10-05T06:36:32.552Z,3.95
2022-10-05T06:39:38.527Z,3.60
2022-10-05T06:43:06.199Z,3.65
2022-10-05T06:46:32.622Z,3.70
2022-10-05T06:50:03.961Z,3.30
2022-10-05T06:53:51.627Z,3.83
2022-10-05T06:57:38.126Z,3.53
2022-10-05T07:00:50.599Z,4.03
2022-10-05T07:04:36.924Z,7.88
2022-10-05T07:07:55.341Z,3.75
2022-10-05T07:11:37.729Z,4.75
2022-10-05T07:15:16.785Z,4.65
2022-10-05T07:18:28.177Z,4.10
2022-10-05T07:21:35.795Z,4.32
2022-10-05T07:25:10.710Z,3.35
2022-10-05T07:28:24.743Z,3.75
2022-10-05T07:31:35.028Z,3.28
2022-10-05T07:35:03.008Z,3.75
2022-10-05T07:38:18.785Z,3.35
2022-10-05T07:41:36.159Z,4.30
2022-10-05T07:44:46.575Z,3.53
2022-10-05T07:47:55.087Z,4.57
2022-10-05T07:51:07.083Z,4.32
2022-10-05T07:54:08.875Z,3.92
2022-10-05T07:57:23.682Z,4.50
2022-10-05T08:00:42.590Z,3.67
2022-10-05T08:04:15.486Z,3.58
2022-10-05T08:07:18.251Z,3.13
2022-10-05T08:10:31.357Z,3.42
2022-10-05T08:13:47.273Z,3.30
2022-10-05T08:16:55.360Z,3.33
2022-10-05T08:20:14.113Z,3.13
2022-10-05T08:23:38.731Z,2.80
2022-10-05T08:27:05.337Z,2.90
2022-10-05T08:30:12.571Z,2.83
2022-10-05T08:33:17.818Z,2.78
2022-10-05T08:36:29.158Z,2.70
2022-10-05T08:39:37.405Z,2.53
2022-10-05T08:43:00.816Z,2.47
2022-10-05T08:46:24.094Z,2.83
2022-10-05T08:49:35.430Z,2.80
2022-10-05T08:52:55.553Z,2.65
2022-10-05T08:55:57.107Z,2.65
2022-10-05T08:59:30.936Z,2.97
2022-10-05T09:03:06.782Z,3.88
2022-10-05T09:06:33.630Z,2.85
2022-10-05T09:13:36.097Z,3.00
2022-10-05T09:16:53.514Z,3.13
2022-10-05T09:20:17.147Z,3.03
2022-10-05T09:23:44.768Z,2.92
2022-10-05T09:27:12.933Z,3.20
2022-10-05T09:30:42.158Z,2.88
2022-10-05T09:34:18.859Z,2.70
2022-10-05T09:37:44.438Z,2.92
2022-10-05T09:41:22.972Z,2.50
2022-10-05T09:45:04.410Z,2.88
2022-10-05T09:48:25.956Z,2.60
2022-10-05T09:51:48.982Z,2.83
2022-10-05T09:55:28.751Z,2.70
2022-10-05T09:58:45.988Z,2.33
2022-10-05T10:02:27.490Z,2.90
2022-10-05T10:05:41.533Z,2.50
2022-10-05T10:09:27.269Z,2.65
2022-10-05T10:12:41.264Z,2.63
2022-10-05T10:15:53.602Z,2.65
2022-10-05T10:19:16.916Z,2.63
2022-10-05T10:22:56.420Z,2.55
2022-10-05T10:26:22.126Z,2.47
2022-10-05T10:29:48.305Z,2.80
2022-10-05T10:32:52.889Z,2.65
2022-10-05T10:36:26.684Z,2.63
2022-10-05T10:39:50.496Z,2.50
2022-10-05T10:43:11.187Z,2.70
2022-10-05T10:46:31.421Z,2.83
2022-10-05T10:49:39.216Z,3.10
2022-10-05T10:52:53.829Z,2.90
2022-10-05T10:56:20.357Z,2.80
2022-10-05T10:59:43.882Z,2.78
2022-10-05T11:03:03.451Z,3.05
2022-10-05T11:06:08.338Z,2.90
2022-10-05T11:09:31.893Z,2.97
2022-10-05T11:12:39.963Z,2.47
2022-10-05T11:15:55.493Z,2.47
2022-10-05T11:19:40.586Z,2.90
2022-10-05T11:23:17.273Z,3.03
2022-10-05T11:26:47.255Z,2.78
2022-10-05T11:30:16.199Z,2.78
2022-10-05T11:33:18.010Z,2.58
2022-10-05T11:36:35.174Z,2.75
2022-10-05T11:39:46.220Z,2.40
2022-10-05T11:42:49.249Z,2.58
2022-10-05T11:45:59.529Z,2.60
2022-10-05T11:49:20.179Z,1.90
2022-10-05T11:52:40.458Z,1.70
2022-10-05T11:56:06.665Z,2.00
2022-10-05T11:59:26.943Z,1.65
2022-10-05T12:02:43.874Z,2.00
2022-10-05T12:06:10.403Z,1.85
2022-10-05T12:09:34.808Z,1.85
2022-10-05T12:12:51.886Z,1.75
2022-10-05T12:15:53.549Z,1.80
2022-10-05T12:19:19.197Z,2.00
2022-10-05T12:22:39.653Z,1.73
2022-10-05T12:26:04.248Z,1.88
2022-10-05T12:29:36.300Z,1.70
2022-10-05T12:33:02.593Z,1.80
2022-10-05T12:36:17.920Z,1.65
2022-10-05T12:39:50.647Z,1.60
2022-10-05T12:43:12.939Z,1.70
2022-10-05T12:46:23.800Z,1.60
2022-10-05T12:49:36.629Z,1.58
2022-10-05T12:52:57.373Z,1.70
2022-10-05T12:56:08.172Z,1.67
2022-10-05T12:59:28.517Z,1.60
2022-10-05T13:02:37.078Z,1.77
2022-10-05T13:05:59.069Z,1.60
2022-10-05T13:09:10.244Z,1.60
2022-10-05T13:12:46.126Z,1.63
2022-10-05T13:15:47.642Z,1.47
2022-10-05T13:19:36.413Z,1.70
2022-10-05T13:22:46.626Z,1.50
2022-10-05T13:26:18.977Z,1.58
2022-10-05T13:29:52.234Z,1.70
2022-10-05T13:33:18.027Z,1.55
2022-10-05T13:36:25.559Z,1.70
2022-10-05T13:39:46.701Z,1.67
2022-10-05T13:43:00.276Z,1.50
2022-10-05T13:46:09.860Z,1.50
2022-10-05T13:49:29.456Z,1.52
2022-10-05T13:52:46.600Z,1.30
2022-10-05T13:56:00.272Z,1.50
2022-10-05T13:59:24.172Z,1.60
2022-10-05T14:02:31.869Z,1.42
2022-10-05T14:05:33.527Z,1.52
2022-10-05T14:08:52.499Z,1.50
2022-10-05T14:12:03.370Z,1.25
2022-10-05T14:15:22.210Z,1.58
2022-10-05T14:18:27.311Z,1.50
2022-10-05T14:21:30.740Z,1.20
2022-10-05T14:24:44.529Z,1.40
2022-10-05T14:28:12.281Z,1.40
2022-10-05T14:31:26.496Z,1.42
2022-10-05T14:34:34.851Z,1.42
2022-10-05T14:37:48.059Z,1.30
2022-10-05T14:41:08.085Z,1.40
2022-10-05T14:44:09.642Z,1.50
2022-10-05T14:47:22.649Z,1.40
2022-10-05T14:50:26.406Z,1.40
2022-10-05T14:54:14.882Z,1.27
2022-10-05T14:57:25.868Z,1.30
2022-10-05T15:00:32.781Z,1.40
2022-10-05T15:03:37.055Z,1.35
2022-10-05T15:06:44.913Z,1.20
2022-10-05T15:10:27.091Z,1.20
2022-10-05T15:13:34.221Z,1.60
2022-10-05T15:16:39.106Z,1.50
2022-10-05T15:19:59.272Z,1.27
2022-10-05T15:23:15.349Z,1.40
2022-10-05T15:29:42.478Z,1.40
2022-10-05T15:33:25.258Z,1.50
2022-10-05T15:36:47.931Z,1.50
2022-10-05T15:39:55.637Z,1.50
2022-10-05T15:43:03.718Z,1.45
2022-10-05T15:46:15.761Z,1.40
2022-10-05T15:49:47.627Z,1.50
2022-10-05T15:53:08.078Z,1.52
2022-10-05T15:56:22.129Z,1.42
2022-10-05T15:59:46.642Z,1.50
2022-10-05T16:02:52.142Z,1.50
2022-10-05T16:06:15.268Z,1.38
2022-10-05T16:09:32.134Z,1.40
2022-10-05T16:12:52.165Z,1.40
2022-10-05T16:16:22.589Z,1.40
2022-10-05T16:19:40.342Z,1.50
2022-10-05T16:22:50.855Z,1.40
2022-10-05T16:26:07.877Z,1.42
2022-10-05T16:29:32.946Z,1.60
2022-10-05T16:32:46.390Z,1.48
2022-10-05T16:36:11.339Z,1.60
2022-10-05T16:39:27.532Z,1.67
2022-10-05T16:45:53.059Z,1.52
2022-10-05T16:49:32.745Z,1.73
